createdAt,value
2023-04-25T00:00:08.004Z,0.51
2023-04-25T00:01:07.988Z,0.53
2023-04-25T00:02:08.028Z,0.52
2023-04-25T00:03:08.173Z,0.52
2023-04-25T00:04:08.421Z,0.51
2023-04-25T00:05:08.289Z,0.52
2023-04-25T00:06:08.181Z,0.52
2023-04-25T00:07:08.213Z,0.51
2023-04-25T00:08:08.268Z,0.52
2023-04-25T00:09:08.306Z,0.52
2023-04-25T00:10:08.367Z,0.52
2023-04-25T00:11:08.387Z,0.52
2023-04-25T00:12:08.450Z,0.51
2023-04-25T00:13:08.464Z,0.52
2023-04-25T00:14:08.570Z,0.52
2023-04-25T00:15:08.549Z,0.51
2023-04-25T00:16:08.628Z,0.53
2023-04-25T00:17:08.643Z,0.52
2023-04-25T00:18:08.717Z,0.52
2023-04-25T00:19:08.740Z,0.52
2023-04-25T00:20:08.761Z,0.52
2023-04-25T00:21:08.826Z,0.51
2023-04-25T00:22:08.827Z,0.52
2023-04-25T00:23:08.926Z,0.52
2023-04-25T00:24:08.940Z,0.52
2023-04-25T00:25:08.993Z,0.53
2023-04-25T00:26:09.025Z,0.52
2023-04-25T00:27:09.044Z,0.52
2023-04-25T00:28:09.075Z,0.53
2023-04-25T00:29:09.117Z,0.52
2023-04-25T00:30:09.218Z,0.51
2023-04-25T00:31:09.231Z,0.51
2023-04-25T00:32:09.245Z,0.52
2023-04-25T00:33:09.314Z,0.51
2023-04-25T00:34:09.317Z,0.52
2023-04-25T00:35:09.341Z,0.51
2023-04-25T00:36:09.410Z,0.52
2023-04-25T00:37:09.419Z,0.52
2023-04-25T00:38:09.475Z,0.51
2023-04-25T00:39:09.510Z,0.52
2023-04-25T00:40:09.607Z,0.52
2023-04-25T00:41:09.607Z,0.50
2023-04-25T00:42:09.663Z,0.51
2023-04-25T00:43:09.690Z,0.51
2023-04-25T00:44:09.761Z,0.51
2023-04-25T00:45:09.787Z,0.52
2023-04-25T00:46:09.909Z,0.51
2023-04-25T00:47:09.866Z,0.51
2023-04-25T00:48:09.958Z,0.51
2023-04-25T00:49:09.956Z,0.52
2023-04-25T00:50:10.464Z,0.51
2023-04-25T00:51:10.516Z,0.50
2023-04-25T00:52:10.113Z,0.51
2023-04-25T00:53:10.129Z,0.52
2023-04-25T00:54:10.224Z,0.52
2023-04-25T00:55:10.270Z,0.52
2023-04-25T00:56:10.338Z,0.52
2023-04-25T00:57:10.329Z,0.50
2023-04-25T00:58:10.445Z,0.51
2023-04-25T00:59:10.443Z,0.51
2023-04-25T01:00:10.472Z,0.50
2023-04-25T01:01:10.558Z,0.52
2023-04-25T01:02:10.694Z,0.52
2023-04-25T01:03:10.778Z,0.53
2023-04-25T01:04:10.794Z,0.52
2023-04-25T01:05:11.448Z,0.52
2023-04-25T01:06:10.786Z,0.52
2023-04-25T01:07:10.795Z,0.50
2023-04-25T01:08:10.891Z,0.50
2023-04-25T01:09:10.912Z,0.52
2023-04-25T01:10:10.948Z,0.51
2023-04-25T01:11:10.982Z,0.51
2023-04-25T01:12:11.041Z,0.51
2023-04-25T01:13:11.084Z,0.52
2023-04-25T01:14:11.150Z,0.52
2023-04-25T01:15:11.204Z,0.52
2023-04-25T01:16:11.277Z,0.52
2023-04-25T01:17:11.282Z,0.51
2023-04-25T01:18:11.332Z,0.52
2023-04-25T01:19:11.378Z,0.51
2023-04-25T01:20:11.461Z,0.51
2023-04-25T01:21:11.479Z,0.52
2023-04-25T01:22:11.563Z,0.52
2023-04-25T01:23:11.557Z,0.51
2023-04-25T01:24:11.626Z,0.52
2023-04-25T01:25:12.527Z,0.52
2023-04-25T01:26:11.722Z,0.52
2023-04-25T01:27:11.785Z,0.52
2023-04-25T01:28:11.852Z,0.51
2023-04-25T01:29:11.864Z,0.51
2023-04-25T01:30:11.947Z,0.52
2023-04-25T01:31:11.963Z,0.51
2023-04-25T01:32:12.131Z,0.51
2023-04-25T01:33:12.077Z,0.52
2023-04-25T01:34:12.148Z,0.52
2023-04-25T01:35:12.208Z,0.52
2023-04-25T01:36:12.216Z,0.53
2023-04-25T01:37:12.276Z,0.51
2023-04-25T01:38:12.320Z,0.52
2023-04-25T01:39:12.353Z,0.51
2023-04-25T01:40:12.462Z,0.51
2023-04-25T01:41:12.465Z,0.51
2023-04-25T01:42:12.534Z,0.52
2023-04-25T01:43:12.596Z,0.52
2023-04-25T01:44:12.663Z,0.52
2023-04-25T01:45:12.680Z,0.52
2023-04-25T01:46:12.768Z,0.52
2023-04-25T01:47:12.792Z,0.52
2023-04-25T01:48:12.867Z,0.52
2023-04-25T01:49:12.909Z,0.52
2023-04-25T01:50:12.986Z,0.52
2023-04-25T01:51:12.993Z,0.52
2023-04-25T01:52:13.071Z,0.52
2023-04-25T01:53:13.103Z,0.50
2023-04-25T01:54:13.132Z,0.51
2023-04-25T01:55:13.234Z,0.52
2023-04-25T01:56:13.309Z,0.52
2023-04-25T01:57:13.317Z,0.52
2023-04-25T01:58:13.355Z,0.52
2023-04-25T01:59:13.404Z,0.52
2023-04-25T02:00:13.487Z,0.51
2023-04-25T02:01:13.561Z,0.51
2023-04-25T02:02:13.578Z,0.51
2023-04-25T02:03:13.731Z,0.52
2023-04-25T02:04:13.816Z,0.51
2023-04-25T02:05:13.713Z,0.52
2023-04-25T02:06:13.780Z,0.52
2023-04-25T02:07:13.833Z,0.53
2023-04-25T02:08:13.896Z,0.52
2023-04-25T02:09:13.896Z,0.52
2023-04-25T02:10:13.972Z,0.53
2023-04-25T02:11:14.032Z,0.52
2023-04-25T02:12:14.083Z,0.52
2023-04-25T02:13:14.118Z,0.52
2023-04-25T02:14:14.186Z,0.52
2023-04-25T02:15:14.247Z,0.52
2023-04-25T02:16:14.427Z,0.52
2023-04-25T02:17:14.397Z,0.51
2023-04-25T02:18:14.443Z,0.52
2023-04-25T02:19:14.459Z,0.51
2023-04-25T02:20:14.497Z,0.52
2023-04-25T02:21:14.575Z,0.53
2023-04-25T02:22:14.646Z,0.51
2023-04-25T02:23:14.675Z,0.51
2023-04-25T02:24:14.751Z,0.51
2023-04-25T02:25:15.002Z,0.51
2023-04-25T02:26:14.837Z,0.51
2023-04-25T02:27:14.904Z,0.51
2023-04-25T02:28:14.957Z,0.51
2023-04-25T02:29:14.995Z,0.51
2023-04-25T02:30:15.077Z,0.51
2023-04-25T02:31:15.154Z,0.51
2023-04-25T02:32:15.167Z,0.51
2023-04-25T02:33:15.205Z,0.52
2023-04-25T02:34:15.286Z,0.52
2023-04-25T02:35:15.342Z,0.52
2023-04-25T02:36:15.385Z,0.51
2023-04-25T02:37:15.436Z,0.51
2023-04-25T02:38:15.508Z,0.51
2023-04-25T02:39:15.594Z,0.51
2023-04-25T02:40:15.602Z,0.52
2023-04-25T02:41:15.668Z,0.52
2023-04-25T02:42:15.744Z,0.52
2023-04-25T02:43:15.752Z,0.52
2023-04-25T02:44:15.816Z,0.51
2023-04-25T02:45:15.871Z,0.51
2023-04-25T02:46:19.132Z,0.51
2023-04-25T02:47:16.951Z,0.52
2023-04-25T02:48:15.940Z,0.52
2023-04-25T02:49:15.887Z,0.52
2023-04-25T02:50:15.902Z,0.51
2023-04-25T02:51:15.923Z,0.51
2023-04-25T02:52:15.878Z,0.52
2023-04-25T02:53:15.886Z,0.53
2023-04-25T02:54:15.862Z,0.52
2023-04-25T02:55:15.868Z,0.52
2023-04-25T02:56:15.851Z,0.52
2023-04-25T02:57:15.906Z,0.52
2023-04-25T02:58:15.926Z,0.52
2023-04-25T02:59:15.996Z,0.53
2023-04-25T03:00:16.088Z,0.52
2023-04-25T03:01:16.105Z,0.52
2023-04-25T03:02:16.167Z,0.52
2023-04-25T03:03:16.288Z,0.53
2023-04-25T03:04:16.313Z,0.51
2023-04-25T03:05:16.385Z,0.52
2023-04-25T03:06:16.376Z,0.51
2023-04-25T03:07:16.442Z,0.52
2023-04-25T03:08:16.486Z,0.52
2023-04-25T03:09:16.539Z,0.52
2023-04-25T03:10:16.624Z,0.52
2023-04-25T03:11:16.676Z,0.51
2023-04-25T03:12:17.004Z,0.52
2023-04-25T03:13:16.768Z,0.52
2023-04-25T03:14:16.835Z,0.50
2023-04-25T03:15:16.905Z,0.52
2023-04-25T03:16:17.040Z,0.51
2023-04-25T03:17:17.067Z,0.53
2023-04-25T03:18:17.084Z,0.52
2023-04-25T03:19:17.139Z,0.51
2023-04-25T03:20:17.219Z,0.52
2023-04-25T03:21:17.275Z,0.52
2023-04-25T03:22:17.331Z,0.52
2023-04-25T03:23:17.362Z,0.51
2023-04-25T03:24:17.450Z,0.51
2023-04-25T03:25:17.504Z,0.51
2023-04-25T03:26:17.571Z,0.51
2023-04-25T03:27:17.640Z,0.52
2023-04-25T03:28:17.720Z,0.51
2023-04-25T03:29:17.749Z,0.50
2023-04-25T03:30:17.849Z,0.51
2023-04-25T03:31:17.904Z,0.51
2023-04-25T03:32:18.082Z,0.51
2023-04-25T03:33:17.997Z,0.51
2023-04-25T03:34:18.085Z,0.51
2023-04-25T03:35:18.155Z,0.52
2023-04-25T03:36:18.224Z,0.51
2023-04-25T03:37:18.243Z,0.51
2023-04-25T03:38:18.356Z,0.51
2023-04-25T03:39:18.380Z,0.51
2023-04-25T03:40:18.506Z,0.52
2023-04-25T03:41:18.523Z,0.51
2023-04-25T03:42:18.588Z,0.52
2023-04-25T03:43:18.661Z,0.51
2023-04-25T03:44:18.733Z,0.51
2023-04-25T03:45:18.823Z,0.50
2023-04-25T03:46:18.887Z,0.51
2023-04-25T03:47:18.906Z,0.51
2023-04-25T03:48:18.963Z,0.51
2023-04-25T03:49:19.655Z,0.52
2023-04-25T03:50:19.112Z,0.51
2023-04-25T03:51:19.174Z,0.51
2023-04-25T03:52:19.203Z,0.52
2023-04-25T03:53:19.276Z,0.51
2023-04-25T03:54:19.322Z,0.52
2023-04-25T03:55:19.353Z,0.52
2023-04-25T03:56:19.425Z,0.50
2023-04-25T03:57:19.490Z,0.51
2023-04-25T03:58:19.555Z,0.52
2023-04-25T03:59:19.632Z,0.51
2023-04-25T04:00:20.012Z,0.51
2023-04-25T04:01:19.713Z,0.51
2023-04-25T04:02:19.843Z,0.52
2023-04-25T04:03:20.072Z,0.51
2023-04-25T04:04:20.135Z,0.51
2023-04-25T04:05:20.231Z,0.52
2023-04-25T04:06:20.039Z,0.50
2023-04-25T04:07:20.093Z,0.51
2023-04-25T04:08:20.156Z,0.51
2023-04-25T04:09:20.228Z,0.52
2023-04-25T04:10:20.278Z,0.52
2023-04-25T04:11:20.363Z,0.52
2023-04-25T04:12:20.434Z,0.53
2023-04-25T04:13:20.455Z,0.51
2023-04-25T04:14:20.578Z,0.51
2023-04-25T04:15:20.597Z,0.51
2023-04-25T04:16:20.678Z,0.52
2023-04-25T04:17:20.710Z,0.51
2023-04-25T04:18:20.720Z,0.51
2023-04-25T04:19:20.764Z,0.52
2023-04-25T04:20:20.796Z,0.52
2023-04-25T04:21:20.851Z,0.51
2023-04-25T04:22:20.926Z,0.52
2023-04-25T04:23:20.956Z,0.51
2023-04-25T04:24:21.008Z,0.52
2023-04-25T04:25:21.088Z,0.52
2023-04-25T04:26:21.105Z,0.51
2023-04-25T04:27:21.152Z,0.51
2023-04-25T04:28:21.211Z,0.52
2023-04-25T04:29:21.288Z,0.52
2023-04-25T04:30:21.330Z,0.51
2023-04-25T04:31:21.435Z,0.51
2023-04-25T04:32:21.584Z,0.52
2023-04-25T04:33:21.564Z,0.52
2023-04-25T04:34:21.582Z,0.52
2023-04-25T04:35:21.654Z,0.52
2023-04-25T04:36:21.664Z,0.52
2023-04-25T04:37:21.684Z,0.52
2023-04-25T04:38:21.746Z,0.52
2023-04-25T04:39:21.777Z,0.52
2023-04-25T04:40:21.859Z,0.52
2023-04-25T04:41:21.925Z,0.53
2023-04-25T04:42:21.927Z,0.51
2023-04-25T04:43:21.983Z,0.52
2023-04-25T04:44:22.049Z,0.52
2023-04-25T04:45:22.121Z,0.52
2023-04-25T04:46:22.129Z,0.51
2023-04-25T04:47:22.213Z,0.52
2023-04-25T04:48:22.211Z,0.52
2023-04-25T04:49:22.254Z,0.52
2023-04-25T04:50:22.289Z,0.51
2023-04-25T04:51:22.309Z,0.51
2023-04-25T04:52:22.322Z,0.51
2023-04-25T04:53:22.353Z,0.51
2023-04-25T04:54:22.389Z,0.51
2023-04-25T04:55:22.433Z,0.52
2023-04-25T04:56:22.455Z,0.52
2023-04-25T04:57:22.515Z,0.50
2023-04-25T04:58:22.506Z,0.50
2023-04-25T04:59:22.551Z,0.51
2023-04-25T05:00:22.590Z,0.52
2023-04-25T05:01:22.780Z,0.51
2023-04-25T05:02:22.731Z,0.52
2023-04-25T05:03:22.808Z,0.51
2023-04-25T05:04:22.875Z,0.51
2023-04-25T05:05:22.782Z,0.51
2023-04-25T05:06:22.775Z,0.52
2023-04-25T05:07:22.841Z,0.50
2023-04-25T05:08:22.848Z,0.52
2023-04-25T05:09:22.881Z,0.51
2023-04-25T05:10:22.906Z,0.51
2023-04-25T05:11:22.877Z,0.52
2023-04-25T05:12:22.901Z,0.52
2023-04-25T05:13:22.926Z,0.51
2023-04-25T05:14:22.923Z,0.51
2023-04-25T05:15:22.991Z,0.52
2023-04-25T05:16:23.126Z,0.51
2023-04-25T05:17:23.053Z,0.51
2023-04-25T05:18:23.829Z,0.51
2023-04-25T05:19:23.142Z,0.51
2023-04-25T05:20:23.134Z,0.51
2023-04-25T05:21:23.194Z,0.51
2023-04-25T05:22:23.233Z,0.51
2023-04-25T05:23:23.354Z,0.51
2023-04-25T05:24:23.365Z,0.52
2023-04-25T05:25:23.379Z,0.51
2023-04-25T05:26:23.401Z,0.51
2023-04-25T05:27:23.439Z,0.50
2023-04-25T05:28:23.421Z,0.51
2023-04-25T05:29:23.601Z,0.50
2023-04-25T05:30:23.630Z,0.51
2023-04-25T05:31:23.610Z,0.51
2023-04-25T05:32:24.254Z,0.50
2023-04-25T05:33:23.718Z,0.52
2023-04-25T05:34:23.796Z,0.52
2023-04-25T05:35:23.977Z,0.51
2023-04-25T05:36:23.925Z,0.52
2023-04-25T05:37:23.954Z,0.53
2023-04-25T05:38:23.980Z,0.52
2023-04-25T05:39:23.989Z,0.55
2023-04-25T05:40:24.153Z,0.55
2023-04-25T05:41:24.169Z,0.55
2023-04-25T05:42:24.551Z,0.56
2023-04-25T05:43:24.078Z,0.58
2023-04-25T05:44:24.073Z,0.60
2023-04-25T05:45:27.085Z,0.59
2023-04-25T05:46:24.085Z,0.63
2023-04-25T05:47:24.105Z,0.65
2023-04-25T05:48:24.026Z,0.66
2023-04-25T05:49:24.041Z,0.68
2023-04-25T05:50:24.057Z,0.69
2023-04-25T05:51:24.034Z,0.70
2023-04-25T05:52:23.997Z,0.73
2023-04-25T05:53:24.037Z,0.73
2023-04-25T05:54:24.043Z,0.77
2023-04-25T05:55:24.073Z,0.77
2023-04-25T05:56:23.983Z,0.79
2023-04-25T05:57:24.052Z,0.82
2023-04-25T05:58:23.970Z,0.83
2023-04-25T05:59:23.945Z,0.85
2023-04-25T06:00:23.942Z,0.86
2023-04-25T06:01:23.985Z,0.88
2023-04-25T06:02:24.054Z,0.90
2023-04-25T06:03:24.231Z,0.91
2023-04-25T06:04:24.143Z,0.92
2023-04-25T06:05:24.012Z,0.91
2023-04-25T06:06:23.919Z,0.94
2023-04-25T06:07:23.935Z,0.96
2023-04-25T06:08:23.894Z,0.97
2023-04-25T06:09:23.877Z,1.00
2023-04-25T06:10:23.909Z,1.03
2023-04-25T06:11:23.890Z,1.02
2023-04-25T06:12:23.874Z,1.03
2023-04-25T06:13:23.940Z,1.04
2023-04-25T06:14:23.854Z,1.06
2023-04-25T06:15:28.495Z,1.09
2023-04-25T06:16:24.973Z,1.09
2023-04-25T06:17:23.882Z,1.09
2023-04-25T06:18:23.969Z,1.10
2023-04-25T06:19:23.820Z,1.12
2023-04-25T06:20:23.844Z,1.14
2023-04-25T06:21:23.807Z,1.18
2023-04-25T06:22:23.793Z,1.17
2023-04-25T06:23:23.803Z,1.17
2023-04-25T06:24:23.829Z,1.19
2023-04-25T06:25:23.845Z,1.19
2023-04-25T06:26:23.846Z,1.20
2023-04-25T06:27:23.813Z,1.21
2023-04-25T06:28:23.768Z,1.22
2023-04-25T06:29:23.831Z,1.26
2023-04-25T06:30:23.794Z,1.26
2023-04-25T06:31:23.778Z,1.26
2023-04-25T06:32:23.774Z,1.26
2023-04-25T06:33:23.715Z,1.26
2023-04-25T06:34:23.715Z,1.27
2023-04-25T06:35:23.711Z,1.26
2023-04-25T06:36:23.709Z,1.30
2023-04-25T06:37:23.678Z,1.31
2023-04-25T06:38:24.102Z,1.32
2023-04-25T06:39:23.711Z,1.38
2023-04-25T06:40:23.702Z,1.64
2023-04-25T06:41:23.695Z,1.64
2023-04-25T06:42:23.658Z,1.61
2023-04-25T06:43:24.079Z,1.40
2023-04-25T06:44:23.772Z,1.36
2023-04-25T06:45:23.926Z,1.39
2023-04-25T06:46:23.884Z,1.33
2023-04-25T06:47:23.898Z,0.97
2023-04-25T06:48:23.861Z,1.01
2023-04-25T06:49:23.884Z,0.87
2023-04-25T06:50:23.934Z,0.85
2023-04-25T06:51:24.545Z,0.83
2023-04-25T06:52:23.923Z,0.79
2023-04-25T06:53:23.940Z,0.86
2023-04-25T06:54:23.908Z,0.82
2023-04-25T06:55:23.964Z,0.90
2023-04-25T06:56:23.957Z,0.97
2023-04-25T06:57:23.962Z,0.97
2023-04-25T06:58:23.994Z,0.93
2023-04-25T06:59:24.004Z,0.95
2023-04-25T07:00:24.079Z,1.04
2023-04-25T07:01:24.065Z,1.02
2023-04-25T07:02:24.209Z,0.98
2023-04-25T07:03:24.137Z,0.96
2023-04-25T07:04:24.412Z,0.98
2023-04-25T07:05:24.170Z,1.00
2023-04-25T07:06:24.114Z,0.93
2023-04-25T07:07:24.104Z,0.85
2023-04-25T07:08:24.141Z,0.91
2023-04-25T07:09:24.187Z,0.89
2023-04-25T07:10:24.163Z,0.92
2023-04-25T07:11:24.216Z,0.93
2023-04-25T07:12:24.210Z,0.85
2023-04-25T07:13:24.595Z,0.75
2023-04-25T07:14:24.323Z,0.74
2023-04-25T07:15:24.635Z,0.78
2023-04-25T07:16:24.339Z,0.81
2023-04-25T07:17:24.434Z,0.78
2023-04-25T07:18:24.646Z,0.75
2023-04-25T07:19:24.411Z,0.69
2023-04-25T07:20:24.403Z,0.62
2023-04-25T07:21:24.426Z,0.65
2023-04-25T07:22:24.472Z,0.63
2023-04-25T07:23:24.556Z,0.64
2023-04-25T07:24:24.506Z,0.65
2023-04-25T07:25:24.582Z,0.60
2023-04-25T07:26:24.552Z,0.60
2023-04-25T07:27:24.583Z,0.60
2023-04-25T07:28:24.635Z,0.58
2023-04-25T07:29:24.597Z,0.60
2023-04-25T07:30:24.779Z,0.60
2023-04-25T07:31:24.671Z,0.64
2023-04-25T07:32:24.794Z,0.65
2023-04-25T07:33:25.138Z,0.67
2023-04-25T07:34:24.722Z,0.77
2023-04-25T07:35:25.143Z,0.83
2023-04-25T07:36:24.736Z,0.91
2023-04-25T07:37:24.754Z,0.94
2023-04-25T07:38:25.113Z,0.92
2023-04-25T07:39:24.901Z,0.86
2023-04-25T07:40:25.200Z,0.82
2023-04-25T07:41:24.889Z,0.90
2023-04-25T07:42:24.835Z,0.92
2023-04-25T07:43:24.852Z,0.98
2023-04-25T07:44:24.868Z,1.05
2023-04-25T07:45:25.154Z,1.08
2023-04-25T07:46:25.027Z,1.13
2023-04-25T07:47:25.018Z,1.22
2023-04-25T07:48:25.128Z,1.23
2023-04-25T07:49:24.944Z,1.27
2023-04-25T07:50:24.977Z,1.30
2023-04-25T07:51:25.676Z,1.33
2023-04-25T07:52:25.293Z,1.36
2023-04-25T07:53:25.128Z,1.37
2023-04-25T07:54:24.998Z,1.37
2023-04-25T07:55:24.955Z,1.38
2023-04-25T07:56:24.974Z,1.35
2023-04-25T07:57:25.644Z,1.37
2023-04-25T07:58:25.127Z,1.36
2023-04-25T07:59:25.011Z,1.40
2023-04-25T08:00:25.146Z,1.41
2023-04-25T08:01:25.062Z,1.40
2023-04-25T08:02:25.261Z,1.45
2023-04-25T08:03:25.407Z,1.41
2023-04-25T08:04:25.285Z,1.46
2023-04-25T08:05:25.481Z,1.51
2023-04-25T08:06:25.567Z,1.44
2023-04-25T08:07:25.082Z,1.49
2023-04-25T08:08:25.180Z,1.48
2023-04-25T08:09:25.078Z,1.50
2023-04-25T08:10:25.082Z,1.48
2023-04-25T08:11:25.129Z,1.43
2023-04-25T08:12:25.623Z,1.46
2023-04-25T08:13:25.135Z,1.45
2023-04-25T08:14:25.185Z,1.45
2023-04-25T08:15:25.248Z,1.43
2023-04-25T08:16:26.305Z,1.51
2023-04-25T08:17:25.218Z,1.49
2023-04-25T08:18:25.356Z,1.45
2023-04-25T08:19:25.373Z,1.35
2023-04-25T08:20:25.320Z,1.35
2023-04-25T08:21:25.298Z,1.38
2023-04-25T08:22:25.330Z,1.41
2023-04-25T08:23:25.377Z,1.39
2023-04-25T08:24:25.463Z,1.38
2023-04-25T08:25:25.451Z,1.39
2023-04-25T08:26:25.529Z,1.42
2023-04-25T08:27:25.566Z,1.39
2023-04-25T08:28:25.667Z,1.43
2023-04-25T08:29:25.704Z,1.45
2023-04-25T08:30:25.771Z,1.45
2023-04-25T08:31:25.762Z,1.43
2023-04-25T08:32:25.802Z,1.49
2023-04-25T08:33:26.188Z,1.44
2023-04-25T08:34:25.792Z,1.45
2023-04-25T08:35:25.859Z,1.47
2023-04-25T08:36:38.526Z,1.46
2023-04-25T08:37:26.900Z,1.46
2023-04-25T08:38:26.160Z,1.46
2023-04-25T08:39:25.867Z,1.46
2023-04-25T08:40:25.844Z,1.49
2023-04-25T08:41:25.873Z,1.48
2023-04-25T08:42:25.839Z,1.48
2023-04-25T08:43:26.201Z,1.47
2023-04-25T08:44:25.791Z,1.47
2023-04-25T08:45:25.871Z,1.61
2023-04-25T08:46:25.847Z,1.60
2023-04-25T08:47:25.815Z,1.62
2023-04-25T08:48:25.789Z,1.58
2023-04-25T08:49:25.786Z,1.52
2023-04-25T08:50:25.838Z,1.38
2023-04-25T08:51:26.184Z,1.27
2023-04-25T08:52:25.997Z,1.20
2023-04-25T08:53:26.207Z,1.16
2023-04-25T08:54:35.176Z,1.11
2023-04-25T08:55:26.948Z,1.11
2023-04-25T08:56:25.974Z,1.10
2023-04-25T08:57:26.022Z,1.04
2023-04-25T08:58:25.940Z,0.97
2023-04-25T08:59:26.128Z,0.94
2023-04-25T09:00:26.005Z,0.94
2023-04-25T09:01:26.175Z,0.89
2023-04-25T09:02:26.385Z,0.84
2023-04-25T09:03:26.339Z,0.83
2023-04-25T09:04:26.293Z,0.80
2023-04-25T09:05:26.370Z,0.78
2023-04-25T09:06:26.469Z,0.75
2023-04-25T09:07:26.456Z,0.74
2023-04-25T09:08:26.551Z,0.79
2023-04-25T09:09:26.628Z,0.73
2023-04-25T09:10:26.645Z,0.71
2023-04-25T09:11:26.671Z,0.74
2023-04-25T09:12:26.779Z,0.67
2023-04-25T09:13:26.766Z,0.68
2023-04-25T09:14:27.012Z,0.66
2023-04-25T09:15:26.927Z,0.66
2023-04-25T09:16:27.002Z,0.64
2023-04-25T09:17:27.021Z,0.68
2023-04-25T09:18:29.858Z,0.69
2023-04-25T09:19:38.917Z,0.72
2023-04-25T09:20:28.088Z,0.72
2023-04-25T09:21:27.044Z,0.71
2023-04-25T09:22:27.026Z,0.73
2023-04-25T09:23:27.043Z,0.74
2023-04-25T09:24:27.010Z,0.76
2023-04-25T09:25:27.016Z,0.81
2023-04-25T09:26:27.034Z,0.85
2023-04-25T09:27:26.987Z,0.87
2023-04-25T09:28:28.414Z,0.92
2023-04-25T09:29:27.003Z,0.97
2023-04-25T09:30:27.008Z,1.01
2023-04-25T09:31:27.258Z,1.05
2023-04-25T09:32:27.288Z,1.08
2023-04-25T09:33:26.976Z,1.11
2023-04-25T09:34:26.951Z,1.14
2023-04-25T09:35:27.179Z,1.18
2023-04-25T09:36:27.185Z,1.19
2023-04-25T09:37:27.084Z,1.18
2023-04-25T09:38:29.887Z,1.21
2023-04-25T09:39:26.924Z,1.21
2023-04-25T09:40:27.005Z,1.22
2023-04-25T09:41:26.916Z,1.24
2023-04-25T09:42:26.900Z,1.26
2023-04-25T09:43:26.889Z,1.27
2023-04-25T09:44:26.896Z,1.28
2023-04-25T09:45:26.877Z,1.32
2023-04-25T09:46:27.240Z,1.31
2023-04-25T09:47:26.874Z,1.30
2023-04-25T09:48:26.868Z,1.30
2023-04-25T09:49:27.282Z,1.29
2023-04-25T09:50:26.914Z,1.29
2023-04-25T09:51:27.190Z,1.31
2023-04-25T09:52:26.861Z,1.30
2023-04-25T09:53:26.822Z,1.27
2023-04-25T09:54:26.819Z,1.30
2023-04-25T09:55:26.807Z,1.32
2023-04-25T09:56:27.209Z,1.33
2023-04-25T09:57:26.894Z,1.29
2023-04-25T09:58:26.811Z,1.30
2023-04-25T09:59:26.784Z,1.31
2023-04-25T10:00:26.778Z,1.30
2023-04-25T10:01:26.798Z,1.30
2023-04-25T10:02:26.993Z,1.31
2023-04-25T10:03:27.107Z,1.30
2023-04-25T10:04:27.955Z,1.30
2023-04-25T10:05:26.842Z,1.31
2023-04-25T10:06:26.728Z,1.31
2023-04-25T10:07:27.713Z,1.31
2023-04-25T10:08:27.722Z,1.30
2023-04-25T10:09:26.734Z,1.33
2023-04-25T10:10:26.699Z,1.29
2023-04-25T10:11:26.678Z,1.28
2023-04-25T10:12:26.766Z,1.29
2023-04-25T10:13:26.748Z,1.29
2023-04-25T10:14:26.669Z,1.30
2023-04-25T10:15:26.681Z,1.27
2023-04-25T10:16:26.833Z,1.27
2023-04-25T10:17:27.233Z,1.23
2023-04-25T10:18:26.679Z,1.25
2023-04-25T10:19:27.245Z,1.25
2023-04-25T10:20:26.659Z,1.25
2023-04-25T10:21:26.623Z,1.24
2023-04-25T10:22:27.389Z,1.25
2023-04-25T10:23:29.174Z,1.22
2023-04-25T10:24:26.801Z,1.24
2023-04-25T10:25:27.668Z,1.18
2023-04-25T10:26:27.396Z,1.18
2023-04-25T10:27:27.667Z,1.15
2023-04-25T10:28:26.968Z,1.16
2023-04-25T10:29:26.976Z,1.17
2023-04-25T10:30:27.154Z,1.15
2023-04-25T10:31:27.162Z,1.18
2023-04-25T10:32:27.531Z,1.19
2023-04-25T10:33:27.102Z,1.20
2023-04-25T10:34:27.157Z,1.22
2023-04-25T10:35:27.149Z,1.18
2023-04-25T10:36:27.118Z,1.26
2023-04-25T10:37:27.124Z,1.27
2023-04-25T10:38:27.151Z,1.28
2023-04-25T10:39:27.173Z,1.29
2023-04-25T10:40:27.153Z,1.34
2023-04-25T10:41:27.156Z,1.39
2023-04-25T10:42:27.185Z,1.41
2023-04-25T10:43:27.199Z,1.45
2023-04-25T10:44:27.216Z,1.42
2023-04-25T10:45:27.224Z,1.44
2023-04-25T10:46:27.379Z,1.43
2023-04-25T10:47:27.249Z,1.44
2023-04-25T10:48:27.332Z,1.45
2023-04-25T10:49:27.675Z,1.45
2023-04-25T10:50:27.271Z,1.47
2023-04-25T10:51:27.297Z,1.47
2023-04-25T10:52:27.317Z,1.46
2023-04-25T10:53:27.378Z,1.46
2023-04-25T10:54:27.337Z,1.47
2023-04-25T10:55:27.356Z,1.47
2023-04-25T10:56:27.373Z,1.48
2023-04-25T10:57:27.449Z,1.47
2023-04-25T10:58:27.421Z,1.46
2023-04-25T10:59:27.482Z,1.46
2023-04-25T11:00:33.963Z,1.45
2023-04-25T11:01:28.493Z,1.45
2023-04-25T11:02:27.566Z,1.46
2023-04-25T11:03:27.867Z,1.45
2023-04-25T11:05:27.424Z,1.45
2023-04-25T11:06:27.424Z,1.41
2023-04-25T11:07:27.410Z,1.40
2023-04-25T11:08:27.404Z,1.40
2023-04-25T11:09:27.697Z,1.40
2023-04-25T11:10:27.417Z,1.39
2023-04-25T11:11:27.408Z,1.40
2023-04-25T11:12:27.739Z,1.43
2023-04-25T11:13:27.367Z,1.39
2023-04-25T11:14:27.704Z,1.38
2023-04-25T11:15:27.367Z,1.40
2023-04-25T11:16:28.332Z,1.39
2023-04-25T11:17:27.553Z,1.40
2023-04-25T11:18:27.486Z,1.42
2023-04-25T11:19:27.501Z,1.39
2023-04-25T11:20:27.613Z,1.36
2023-04-25T11:21:27.620Z,1.37
2023-04-25T11:22:27.674Z,1.37
2023-04-25T11:23:27.690Z,1.34
2023-04-25T11:24:27.818Z,1.35
2023-04-25T11:25:27.834Z,1.32
2023-04-25T11:26:27.884Z,1.36
2023-04-25T11:27:28.258Z,1.33
2023-04-25T11:28:28.027Z,1.35
2023-04-25T11:29:28.071Z,1.34
2023-04-25T11:30:28.159Z,1.36
2023-04-25T11:31:28.222Z,1.36
2023-04-25T11:32:28.849Z,1.31
2023-04-25T11:33:28.382Z,1.35
2023-04-25T11:34:28.376Z,1.34
2023-04-25T11:35:28.424Z,1.32
2023-04-25T11:36:28.509Z,1.30
2023-04-25T11:37:28.552Z,1.31
2023-04-25T11:38:29.453Z,1.34
2023-04-25T11:39:28.812Z,1.33
2023-04-25T11:40:28.700Z,1.33
2023-04-25T11:41:28.769Z,1.34
2023-04-25T11:42:28.836Z,1.32
2023-04-25T11:43:28.905Z,1.31
2023-04-25T11:44:28.974Z,1.33
2023-04-25T11:45:29.068Z,1.33
2023-04-25T11:46:29.131Z,1.29
2023-04-25T11:47:29.239Z,1.30
2023-04-25T11:48:29.229Z,1.32
2023-04-25T11:49:29.268Z,1.30
2023-04-25T11:50:29.342Z,1.32
2023-04-25T11:51:29.424Z,1.31
2023-04-25T11:52:29.457Z,1.32
2023-04-25T11:53:29.513Z,1.31
2023-04-25T11:54:29.545Z,1.33
2023-04-25T11:55:29.823Z,1.32
2023-04-25T11:56:29.685Z,1.31
2023-04-25T11:57:29.750Z,1.33
2023-04-25T11:58:29.809Z,1.30
2023-04-25T11:59:29.850Z,1.32
2023-04-25T12:00:29.889Z,1.30
2023-04-25T12:01:31.549Z,1.33
2023-04-25T12:02:30.047Z,1.30
2023-04-25T12:03:30.108Z,1.33
2023-04-25T12:04:30.129Z,1.36
2023-04-25T12:05:33.233Z,1.34
2023-04-25T12:06:29.934Z,1.34
2023-04-25T12:07:29.937Z,1.34
2023-04-25T12:08:29.875Z,1.33
2023-04-25T12:09:29.903Z,1.33
2023-04-25T12:10:30.217Z,1.33
2023-04-25T12:11:29.856Z,1.33
2023-04-25T12:12:30.261Z,1.31
2023-04-25T12:13:29.875Z,1.32
2023-04-25T12:14:29.872Z,1.27
2023-04-25T12:15:29.845Z,1.29
2023-04-25T12:16:29.832Z,1.29
2023-04-25T12:17:30.746Z,1.27
2023-04-25T12:18:29.787Z,1.26
2023-04-25T12:19:29.803Z,1.27
2023-04-25T12:20:29.806Z,1.26
2023-04-25T12:21:29.792Z,1.25
2023-04-25T12:22:30.262Z,1.25
2023-04-25T12:23:29.765Z,1.23
2023-04-25T12:24:29.766Z,1.22
2023-04-25T12:25:29.827Z,1.23
2023-04-25T12:26:29.739Z,1.20
2023-04-25T12:27:29.851Z,1.20
2023-04-25T12:28:29.778Z,1.17
2023-04-25T12:29:34.848Z,1.18
2023-04-25T12:30:30.727Z,1.18
2023-04-25T12:31:29.761Z,1.18
2023-04-25T12:32:29.774Z,1.18
2023-04-25T12:33:29.703Z,1.15
2023-04-25T12:34:29.749Z,1.15
2023-04-25T12:35:29.691Z,1.13
2023-04-25T12:36:29.699Z,1.15
2023-04-25T12:37:29.668Z,1.14
2023-04-25T12:38:29.680Z,1.13
2023-04-25T12:39:29.725Z,1.13
2023-04-25T12:40:29.672Z,1.10
2023-04-25T12:41:29.683Z,1.12
2023-04-25T12:42:29.750Z,1.12
2023-04-25T12:43:29.785Z,1.10
2023-04-25T12:44:29.872Z,1.10
2023-04-25T12:45:29.893Z,1.11
2023-04-25T12:46:29.993Z,1.09
2023-04-25T12:47:30.041Z,1.10
2023-04-25T12:48:30.111Z,1.05
2023-04-25T12:49:30.135Z,1.00
2023-04-25T12:50:30.216Z,1.05
2023-04-25T12:51:30.267Z,1.04
2023-04-25T12:52:30.325Z,1.02
2023-04-25T12:53:30.440Z,1.03
2023-04-25T12:54:30.452Z,1.00
2023-04-25T12:55:30.549Z,0.98
2023-04-25T12:56:30.624Z,0.99
2023-04-25T12:57:30.656Z,0.98
2023-04-25T12:58:30.683Z,0.98
2023-04-25T12:59:30.780Z,0.98
2023-04-25T13:00:30.828Z,0.97
2023-04-25T13:01:31.032Z,0.96
2023-04-25T13:02:31.047Z,0.97
2023-04-25T13:03:31.199Z,0.95
2023-04-25T13:04:31.124Z,0.97
2023-04-25T13:05:31.151Z,0.98
2023-04-25T13:06:31.214Z,0.98
2023-04-25T13:07:32.494Z,0.97
2023-04-25T13:08:31.314Z,0.96
2023-04-25T13:09:31.360Z,0.96
2023-04-25T13:10:31.400Z,0.97
2023-04-25T13:11:31.716Z,0.98
2023-04-25T13:12:31.466Z,0.98
2023-04-25T13:13:31.518Z,0.96
2023-04-25T13:14:31.598Z,0.95
2023-04-25T13:15:31.649Z,0.96
2023-04-25T13:16:31.690Z,0.96
2023-04-25T13:17:31.675Z,0.95
2023-04-25T13:18:31.634Z,0.96
2023-04-25T13:19:31.679Z,0.94